sensor_id;sensor_type;location;lat;lon;timestamp;pressure;altitude;pressure_sealevel;temperature;humidity
36600;BME280;35385;55.668;37.508;2023-05-16T00:00:48;99866.06;;;12.78;100.00
36600;BME280;35385;55.668;37.508;2023-05-16T00:01:52;99859.38;;;12.63;100.00
36600;BME280;35385;55.668;37.508;2023-05-16T00:02:53;99824.25;;;12.26;100.00
36600;BME280;35385;55.668;37.508;2023-05-16T00:03:57;99870.31;;;12.50;100.00
36600;BME280;35385;55.668;37.508;2023-05-16T00:04:58;99874.31;;;12.35;100.00
36600;BME280;35385;55.668;37.508;2023-05-16T00:05:59;99867.91;;;12.26;100.00
36600;BME280;35385;55.668;37.508;2023-05-16T00:07:02;99852.78;;;12.16;100.00
36600;BME280;35385;55.668;37.508;2023-05-16T00:08:02;99873.59;;;12.33;100.00
36600;BME280;35385;55.668;37.508;2023-05-16T00:09:03;99815.72;;;12.11;100.00
36600;BME280;35385;55.668;37.508;2023-05-16T00:10:04;99864.81;;;12.52;100.00
36600;BME280;35385;55.668;37.508;2023-05-16T00:11:06;99812.13;;;12.31;100.00
36600;BME280;35385;55.668;37.508;2023-05-16T00:12:06;99817.22;;;12.34;100.00
36600;BME280;35385;55.668;37.508;2023-05-16T00:13:07;99867.16;;;12.66;100.00
36600;BME280;35385;55.668;37.508;2023-05-16T00:14:09;99840.66;;;12.42;100.00
36600;BME280;35385;55.668;37.508;2023-05-16T00:15:11;99872.19;;;12.59;100.00
36600;BME280;35385;55.668;37.508;2023-05-16T00:16:13;99857.63;;;12.52;100.00
36600;BME280;35385;55.668;37.508;2023-05-16T00:17:14;99873.13;;;12.49;100.00
36600;BME280;35385;55.668;37.508;2023-05-16T00:18:18;99880.91;;;12.52;100.00
36600;BME280;35385;55.668;37.508;2023-05-16T00:19:18;99874.09;;;12.48;100.00
36600;BME280;35385;55.668;37.508;2023-05-16T00:20:19;99864.81;;;12.52;100.00
36600;BME280;35385;55.668;37.508;2023-05-16T00:21:23;99887.88;;;12.64;100.00
36600;BME280;35385;55.668;37.508;2023-05-16T00:22:24;99868.97;;;12.65;100.00
36600;BME280;35385;55.668;37.508;2023-05-16T00:23:25;99864.47;;;12.66;100.00
36600;BME280;35385;55.668;37.508;2023-05-16T00:24:26;99863.91;;;12.72;100.00
36600;BME280;35385;55.668;37.508;2023-05-16T00:25:27;99853.63;;;12.67;100.00
36600;BME280;35385;55.668;37.508;2023-05-16T00:26:28;99879.47;;;12.88;100.00
36600;BME280;35385;55.668;37.508;2023-05-16T00:27:28;99874.25;;;12.86;100.00
36600;BME280;35385;55.668;37.508;2023-05-16T00:28:29;99870.59;;;12.87;100.00
36600;BME280;35385;55.668;37.508;2023-05-16T00:29:30;99834.13;;;12.65;100.00
36600;BME280;35385;55.668;37.508;2023-05-16T00:30:30;99874.00;;;12.89;100.00
36600;BME280;35385;55.668;37.508;2023-05-16T00:31:31;99857.31;;;12.76;100.00
36600;BME280;35385;55.668;37.508;2023-05-16T00:32:32;99862.94;;;12.73;100.00
36600;BME280;35385;55.668;37.508;2023-05-16T00:33:33;99862.63;;;12.66;100.00
36600;BME280;35385;55.668;37.508;2023-05-16T00:34:34;99839.88;;;12.51;100.00
36600;BME280;35385;55.668;37.508;2023-05-16T00:35:35;99856.69;;;12.63;100.00
36600;BME280;35385;55.668;37.508;2023-05-16T00:36:35;99831.50;;;12.45;100.00
36600;BME280;35385;55.668;37.508;2023-05-16T00:37:37;99863.00;;;12.52;100.00
36600;BME280;35385;55.668;37.508;2023-05-16T00:38:37;99866.94;;;12.58;100.00
36600;BME280;35385;55.668;37.508;2023-05-16T00:39:38;99842.81;;;12.48;100.00
36600;BME280;35385;55.668;37.508;2023-05-16T00:40:39;99862.31;;;12.60;100.00
36600;BME280;35385;55.668;37.508;2023-05-16T00:41:40;99823.03;;;12.39;100.00
36600;BME280;35385;55.668;37.508;2023-05-16T00:42:41;99857.28;;;12.66;100.00
36600;BME280;35385;55.668;37.508;2023-05-16T00:43:41;99845.00;;;12.64;100.00
36600;BME280;35385;55.668;37.508;2023-05-16T00:44:42;99853.03;;;12.64;100.00
36600;BME280;35385;55.668;37.508;2023-05-16T00:45:44;99778.38;;;12.19;100.00
36600;BME280;35385;55.668;37.508;2023-05-16T00:46:44;99810.34;;;12.42;100.00
36600;BME280;35385;55.668;37.508;2023-05-16T00:47:45;99846.78;;;12.54;100.00
36600;BME280;35385;55.668;37.508;2023-05-16T00:48:46;99805.91;;;12.31;100.00
36600;BME280;35385;55.668;37.508;2023-05-16T00:49:47;99859.91;;;12.57;100.00
36600;BME280;35385;55.668;37.508;2023-05-16T00:50:48;99850.25;;;12.45;100.00
36600;BME280;35385;55.668;37.508;2023-05-16T00:51:49;99859.22;;;12.55;100.00
36600;BME280;35385;55.668;37.508;2023-05-16T00:52:51;99864.81;;;12.52;100.00
36600;BME280;35385;55.668;37.508;2023-05-16T00:53:52;99859.22;;;12.55;100.00
36600;BME280;35385;55.668;37.508;2023-05-16T00:54:54;99854.53;;;12.57;100.00
36600;BME280;35385;55.668;37.508;2023-05-16T00:55:55;99851.56;;;12.50;100.00
36600;BME280;35385;55.668;37.508;2023-05-16T00:56:56;99857.09;;;12.58;100.00
36600;BME280;35385;55.668;37.508;2023-05-16T00:57:57;99851.59;;;12.60;100.00
36600;BME280;35385;55.668;37.508;2023-05-16T00:58:58;99853.88;;;12.64;100.00
36600;BME280;35385;55.668;37.508;2023-05-16T00:59:59;99849.41;;;12.44;100.00
36600;BME280;35385;55.668;37.508;2023-05-16T01:01:00;99839.91;;;12.30;100.00
36600;BME280;35385;55.668;37.508;2023-05-16T01:02:03;99848.25;;;12.37;100.00
36600;BME280;35385;55.668;37.508;2023-05-16T01:03:06;99847.53;;;12.35;100.00
36600;BME280;35385;55.668;37.508;2023-05-16T01:04:07;99852.63;;;12.38;100.00
36600;BME280;35385;55.668;37.508;2023-05-16T01:05:08;99837.69;;;12.35;100.00
36600;BME280;35385;55.668;37.508;2023-05-16T01:06:08;99771.09;;;12.00;100.00
36600;BME280;35385;55.668;37.508;2023-05-16T01:07:10;99845.75;;;12.45;100.00
36600;BME280;35385;55.668;37.508;2023-05-16T01:08:11;99845.63;;;12.47;100.00
36600;BME280;35385;55.668;37.508;2023-05-16T01:09:12;99848.03;;;12.50;100.00
36600;BME280;35385;55.668;37.508;2023-05-16T01:10:13;99849.47;;;12.54;100.00
36600;BME280;35385;55.668;37.508;2023-05-16T01:12:36;99841.97;;;12.57;100.00
36600;BME280;35385;55.668;37.508;2023-05-16T01:15:11;99847.78;;;12.53;100.00
36600;BME280;35385;55.668;37.508;2023-05-16T01:16:19;99836.84;;;12.45;100.00
36600;BME280;35385;55.668;37.508;2023-05-16T01:21:19;99834.44;;;12.42;100.00
36600;BME280;35385;55.668;37.508;2023-05-16T01:22:45;99841.97;;;12.48;100.00
36600;BME280;35385;55.668;37.508;2023-05-16T01:24:02;99841.50;;;12.43;100.00
36600;BME280;35385;55.668;37.508;2023-05-16T01:26:26;99846.44;;;12.37;100.00
36600;BME280;35385;55.668;37.508;2023-05-16T01:27:27;99846.66;;;12.25;100.00
36600;BME280;35385;55.668;37.508;2023-05-16T01:28:29;99840.19;;;12.07;100.00
36600;BME280;35385;55.668;37.508;2023-05-16T01:29:29;99846.47;;;11.96;100.00
36600;BME280;35385;55.668;37.508;2023-05-16T01:30:33;99802.28;;;11.69;100.00
36600;BME280;35385;55.668;37.508;2023-05-16T01:31:35;99843.06;;;11.94;100.00
36600;BME280;35385;55.668;37.508;2023-05-16T01:32:35;99851.63;;;11.88;100.00
36600;BME280;35385;55.668;37.508;2023-05-16T01:33:36;99851.78;;;11.75;100.00
36600;BME280;35385;55.668;37.508;2023-05-16T01:34:36;99849.97;;;11.76;100.00
36600;BME280;35385;55.668;37.508;2023-05-16T01:39:00;99861.53;;;11.76;100.00
36600;BME280;35385;55.668;37.508;2023-05-16T01:40:08;99869.84;;;11.94;100.00
36600;BME280;35385;55.668;37.508;2023-05-16T01:41:23;99834.78;;;11.76;100.00
36600;BME280;35385;55.668;37.508;2023-05-16T01:42:29;99862.25;;;11.99;100.00
36600;BME280;35385;55.668;37.508;2023-05-16T01:43:34;99857.63;;;12.01;100.00
36600;BME280;35385;55.668;37.508;2023-05-16T01:45:50;99866.75;;;11.98;100.00
36600;BME280;35385;55.668;37.508;2023-05-16T01:46:55;99859.31;;;12.02;100.00
36600;BME280;35385;55.668;37.508;2023-05-16T01:49:30;99863.44;;;12.06;100.00
36600;BME280;35385;55.668;37.508;2023-05-16T01:50:39;99860.94;;;12.14;100.00
36600;BME280;35385;55.668;37.508;2023-05-16T01:51:49;99858.91;;;12.27;100.00
36600;BME280;35385;55.668;37.508;2023-05-16T01:53:27;99858.88;;;12.48;100.00
36600;BME280;35385;55.668;37.508;2023-05-16T01:54:30;99817.13;;;12.46;100.00
36600;BME280;35385;55.668;37.508;2023-05-16T01:56:38;99808.28;;;12.55;100.00
36600;BME280;35385;55.668;37.508;2023-05-16T01:57:39;99853.63;;;12.77;100.00
36600;BME280;35385;55.668;37.508;2023-05-16T01:58:41;99854.88;;;12.73;100.00
36600;BME280;35385;55.668;37.508;2023-05-16T01:59:42;99857.31;;;12.76;100.00
36600;BME280;35385;55.668;37.508;2023-05-16T02:00:43;99855.34;;;12.78;100.00
36600;BME280;35385;55.668;37.508;2023-05-16T02:01:44;99851.69;;;12.79;100.00
36600;BME280;35385;55.668;37.508;2023-05-16T02:02:45;99851.69;;;12.79;100.00
36600;BME280;35385;55.668;37.508;2023-05-16T02:03:46;99815.25;;;12.67;100.00
36600;BME280;35385;55.668;37.508;2023-05-16T02:04:46;99856.34;;;12.87;100.00
36600;BME280;35385;55.668;37.508;2023-05-16T02:05:47;99852.69;;;12.88;100.00
36600;BME280;35385;55.668;37.508;2023-05-16T02:06:47;99855.06;;;12.81;100.00
36600;BME280;35385;55.668;37.508;2023-05-16T02:07:48;99861.16;;;12.83;100.00
36600;BME280;35385;55.668;37.508;2023-05-16T02:08:49;99823.09;;;12.59;100.00
36600;BME280;35385;55.668;37.508;2023-05-16T02:09:50;99847.97;;;12.70;100.00
36600;BME280;35385;55.668;37.508;2023-05-16T02:10:51;99864.94;;;12.81;100.00
36600;BME280;35385;55.668;37.508;2023-05-16T02:11:52;99867.75;;;12.79;100.00
36600;BME280;35385;55.668;37.508;2023-05-16T02:12:53;99860.44;;;12.81;100.00
36600;BME280;35385;55.668;37.508;2023-05-16T02:13:54;99862.69;;;12.86;100.00
36600;BME280;35385;55.668;37.508;2023-05-16T02:14:54;99852.81;;;12.86;100.00
36600;BME280;35385;55.668;37.508;2023-05-16T02:15:55;99835.59;;;12.79;100.00
36600;BME280;35385;55.668;37.508;2023-05-16T02:16:56;99862.72;;;12.95;100.00
36600;BME280;35385;55.668;37.508;2023-05-16T02:17:57;99865.16;;;12.98;100.00
36600;BME280;35385;55.668;37.508;2023-05-16T02:18:58;99856.66;;;13.03;100.00
36600;BME280;35385;55.668;37.508;2023-05-16T02:20:18;99859.22;;;13.04;100.00
36600;BME280;35385;55.668;37.508;2023-05-16T02:21:19;99862.63;;;13.06;100.00
36600;BME280;35385;55.668;37.508;2023-05-16T02:22:19;99853.84;;;13.04;100.00
36600;BME280;35385;55.668;37.508;2023-05-16T02:23:20;99861.91;;;13.14;100.00
36600;BME280;35385;55.668;37.508;2023-05-16T02:24:20;99866.31;;;13.15;100.00
36600;BME280;35385;55.668;37.508;2023-05-16T02:25:21;99862.53;;;13.18;100.00
36600;BME280;35385;55.668;37.508;2023-05-16T02:26:22;99863.63;;;13.15;100.00
36600;BME280;35385;55.668;37.508;2023-05-16T02:27:22;99861.69;;;13.17;100.00
36600;BME280;35385;55.668;37.508;2023-05-16T02:28:23;99850.63;;;13.10;100.00
36600;BME280;35385;55.668;37.508;2023-05-16T02:29:24;99868.59;;;13.20;100.00
36600;BME280;35385;55.668;37.508;2023-05-16T02:30:24;99865.91;;;13.20;100.00
36600;BME280;35385;55.668;37.508;2023-05-16T02:31:30;99878.06;;;13.24;100.00
36600;BME280;35385;55.668;37.508;2023-05-16T02:32:34;99834.63;;;12.99;100.00
36600;BME280;35385;55.668;37.508;2023-05-16T02:33:34;99866.22;;;13.26;100.00
36600;BME280;35385;55.668;37.508;2023-05-16T02:34:35;99855.06;;;13.21;100.00
36600;BME280;35385;55.668;37.508;2023-05-16T02:35:35;99863.69;;;13.25;100.00
36600;BME280;35385;55.668;37.508;2023-05-16T02:36:36;99868.59;;;13.29;100.00
36600;BME280;35385;55.668;37.508;2023-05-16T02:37:37;99873.84;;;13.31;100.00
36600;BME280;35385;55.668;37.508;2023-05-16T02:38:37;99865.66;;;13.32;100.00
36600;BME280;35385;55.668;37.508;2023-05-16T02:39:38;99815.59;;;13.02;100.00
36600;BME280;35385;55.668;37.508;2023-05-16T02:40:39;99863.69;;;13.34;100.00
36600;BME280;35385;55.668;37.508;2023-05-16T02:41:39;99866.94;;;13.38;100.00
36600;BME280;35385;55.668;37.508;2023-05-16T02:42:40;99869.91;;;13.35;100.00
36600;BME280;35385;55.668;37.508;2023-05-16T02:43:41;99860.44;;;13.31;100.00
36600;BME280;35385;55.668;37.508;2023-05-16T02:44:43;99825.25;;;13.15;100.00
36600;BME280;35385;55.668;37.508;2023-05-16T02:45:44;99853.09;;;13.33;100.00
36600;BME280;35385;55.668;37.508;2023-05-16T02:46:44;99857.19;;;13.37;100.00
36600;BME280;35385;55.668;37.508;2023-05-16T02:47:45;99867.66;;;13.40;100.00
36600;BME280;35385;55.668;37.508;2023-05-16T02:48:46;99821.84;;;13.13;100.00
36600;BME280;35385;55.668;37.508;2023-05-16T02:49:46;99870.34;;;13.40;100.00
36600;BME280;35385;55.668;37.508;2023-05-16T02:50:47;99875.84;;;13.38;100.00
36600;BME280;35385;55.668;37.508;2023-05-16T02:51:48;99860.88;;;13.36;100.00
36600;BME280;35385;55.668;37.508;2023-05-16T02:52:48;99868.19;;;13.43;100.00
36600;BME280;35385;55.668;37.508;2023-05-16T02:53:49;99873.16;;;13.38;100.00
36600;BME280;35385;55.668;37.508;2023-05-16T02:54:50;99804.88;;;12.93;100.00
36600;BME280;35385;55.668;37.508;2023-05-16T02:55:51;99874.00;;;13.39;100.00
36600;BME280;35385;55.668;37.508;2023-05-16T02:56:51;99878.09;;;13.43;100.00
36600;BME280;35385;55.668;37.508;2023-05-16T02:57:52;99869.75;;;13.46;100.00
36600;BME280;35385;55.668;37.508;2023-05-16T02:58:54;99873.16;;;13.48;100.00
36600;BME280;35385;55.668;37.508;2023-05-16T02:59:55;99859.19;;;13.54;100.00
36600;BME280;35385;55.668;37.508;2023-05-16T03:00:56;99861.75;;;13.56;100.00
36600;BME280;35385;55.668;37.508;2023-05-16T03:01:56;99860.59;;;13.58;100.00
36600;BME280;35385;55.668;37.508;2023-05-16T03:02:57;99866.81;;;13.59;100.00
36600;BME280;35385;55.668;37.508;2023-05-16T03:03:58;99856.91;;;13.59;100.00
36600;BME280;35385;55.668;37.508;2023-05-16T03:04:58;99860.75;;;13.66;100.00
36600;BME280;35385;55.668;37.508;2023-05-16T03:05:59;99863.16;;;13.69;100.00
36600;BME280;35385;55.668;37.508;2023-05-16T03:07:00;99853.53;;;13.57;100.00
36600;BME280;35385;55.668;37.508;2023-05-16T03:08:01;99865.41;;;13.64;100.00
36600;BME280;35385;55.668;37.508;2023-05-16T03:09:01;99868.78;;;13.66;100.00
36600;BME280;35385;55.668;37.508;2023-05-16T03:10:03;99868.53;;;13.69;100.00
36600;BME280;35385;55.668;37.508;2023-05-16T03:11:04;99865.38;;;13.74;100.00
36600;BME280;35385;55.668;37.508;2023-05-16T03:12:04;99824.97;;;13.56;100.00
36600;BME280;35385;55.668;37.508;2023-05-16T03:13:05;99860.31;;;13.80;100.00
36600;BME280;35385;55.668;37.508;2023-05-16T03:14:06;99868.50;;;13.89;100.00
36600;BME280;35385;55.668;37.508;2023-05-16T03:15:08;99865.53;;;13.92;100.00
36600;BME280;35385;55.668;37.508;2023-05-16T03:16:08;99868.22;;;13.92;100.00
36600;BME280;35385;55.668;37.508;2023-05-16T03:17:09;99871.47;;;13.95;100.00
36600;BME280;35385;55.668;37.508;2023-05-16T03:18:09;99864.53;;;13.93;100.00
36600;BME280;35385;55.668;37.508;2023-05-16T03:19:10;99870.91;;;13.92;100.00
36600;BME280;35385;55.668;37.508;2023-05-16T03:20:11;99864.41;;;13.94;100.00
36600;BME280;35385;55.668;37.508;2023-05-16T03:21:12;99818.50;;;13.68;100.00
36600;BME280;35385;55.668;37.508;2023-05-16T03:22:12;99872.72;;;14.01;100.00
36600;BME280;35385;55.668;37.508;2023-05-16T03:23:13;99878.78;;;14.03;100.00
36600;BME280;35385;55.668;37.508;2023-05-16T03:24:14;99879.50;;;14.05;100.00
36600;BME280;35385;55.668;37.508;2023-05-16T03:25:14;99863.28;;;13.97;100.00
36600;BME280;35385;55.668;37.508;2023-05-16T03:26:15;99867.34;;;14.01;100.00
36600;BME280;35385;55.668;37.508;2023-05-16T03:27:16;99873.13;;;14.15;100.00
36600;BME280;35385;55.668;37.508;2023-05-16T03:28:16;99838.25;;;13.96;100.00
36600;BME280;35385;55.668;37.508;2023-05-16T03:29:17;99871.41;;;14.24;100.00
36600;BME280;35385;55.668;37.508;2023-05-16T03:30:18;99871.28;;;14.26;100.00
36600;BME280;35385;55.668;37.508;2023-05-16T03:31:19;99835.53;;;14.06;100.00
36600;BME280;35385;55.668;37.508;2023-05-16T03:32:20;99871.81;;;14.29;100.00
36600;BME280;35385;55.668;37.508;2023-05-16T03:33:20;99879.88;;;14.29;100.00
36600;BME280;35385;55.668;37.508;2023-05-16T03:34:21;99868.41;;;14.37;100.00
36600;BME280;35385;55.668;37.508;2023-05-16T03:35:22;99872.41;;;14.42;100.00
36600;BME280;35385;55.668;37.508;2023-05-16T03:36:24;99870.53;;;14.53;100.00
36600;BME280;35385;55.668;37.508;2023-05-16T03:37:24;99872.91;;;14.56;100.00
36600;BME280;35385;55.668;37.508;2023-05-16T03:38:25;99871.03;;;14.66;100.00
36600;BME280;35385;55.668;37.508;2023-05-16T03:39:26;99873.44;;;14.69;100.00
36600;BME280;35385;55.668;37.508;2023-05-16T03:40:27;99868.06;;;14.69;100.00
36600;BME280;35385;55.668;37.508;2023-05-16T03:41:27;99856.03;;;14.63;100.00
36600;BME280;35385;55.668;37.508;2023-05-16T03:42:28;99877.91;;;14.78;100.00
36600;BME280;35385;55.668;37.508;2023-05-16T03:43:29;99885.41;;;14.84;100.00
36600;BME280;35385;55.668;37.508;2023-05-16T03:44:30;99878.84;;;14.86;100.00
36600;BME280;35385;55.668;37.508;2023-05-16T03:45:30;99880.41;;;14.89;100.00
36600;BME280;35385;55.668;37.508;2023-05-16T03:46:31;99774.50;;;14.35;100.00
36600;BME280;35385;55.668;37.508;2023-05-16T03:47:32;99840.28;;;14.78;100.00
36600;BME280;35385;55.668;37.508;2023-05-16T03:48:33;99877.78;;;15.07;100.00
36600;BME280;35385;55.668;37.508;2023-05-16T03:49:33;99880.53;;;15.15;100.00
36600;BME280;35385;55.668;37.508;2023-05-16T03:50:36;99873.03;;;15.18;100.00
36600;BME280;35385;55.668;37.508;2023-05-16T03:51:37;99829.72;;;14.94;99.31
36600;BME280;35385;55.668;37.508;2023-05-16T03:52:37;99881.50;;;15.24;98.94
36600;BME280;35385;55.668;37.508;2023-05-16T03:53:38;99882.19;;;15.26;99.03
36600;BME280;35385;55.668;37.508;2023-05-16T03:54:38;99885.59;;;15.28;97.77
36600;BME280;35385;55.668;37.508;2023-05-16T03:55:39;99886.66;;;15.35;97.75
36600;BME280;35385;55.668;37.508;2023-05-16T03:56:40;99875.59;;;15.38;97.69
36600;BME280;35385;55.668;37.508;2023-05-16T03:57:41;99882.06;;;15.45;97.69
36600;BME280;35385;55.668;37.508;2023-05-16T03:58:42;99872.75;;;15.39;97.94
36600;BME280;35385;55.668;37.508;2023-05-16T03:59:42;99868.66;;;15.35;97.61
36600;BME280;35385;55.668;37.508;2023-05-16T04:00:43;99844.53;;;15.26;95.04
36600;BME280;35385;55.668;37.508;2023-05-16T04:01:46;99881.53;;;15.41;96.33
36600;BME280;35385;55.668;37.508;2023-05-16T04:02:47;99840.59;;;15.20;94.30
36600;BME280;35385;55.668;37.508;2023-05-16T04:03:47;99881.03;;;15.55;93.99
36600;BME280;35385;55.668;37.508;2023-05-16T04:04:48;99886.84;;;15.51;93.39
36600;BME280;35385;55.668;37.508;2023-05-16T04:05:48;99883.16;;;15.52;94.56
36600;BME280;35385;55.668;37.508;2023-05-16T04:06:49;99847.75;;;15.47;95.78
36600;BME280;35385;55.668;37.508;2023-05-16T04:07:50;99881.97;;;15.64;93.90
36600;BME280;35385;55.668;37.508;2023-05-16T04:08:51;99886.75;;;15.70;93.39
36600;BME280;35385;55.668;37.508;2023-05-16T04:09:51;99876.28;;;15.67;93.42
36600;BME280;35385;55.668;37.508;2023-05-16T04:10:52;99880.16;;;15.73;92.39
36600;BME280;35385;55.668;37.508;2023-05-16T04:11:52;99870.63;;;15.61;92.71
36600;BME280;35385;55.668;37.508;2023-05-16T04:12:55;99891.13;;;15.71;92.02
36600;BME280;35385;55.668;37.508;2023-05-16T04:13:56;99855.69;;;15.48;91.59
36600;BME280;35385;55.668;37.508;2023-05-16T04:14:56;99877.03;;;15.77;92.65
36600;BME280;35385;55.668;37.508;2023-05-16T04:16:00;99887.88;;;15.85;90.81
36600;BME280;35385;55.668;37.508;2023-05-16T04:17:01;99850.41;;;15.74;91.38
36600;BME280;35385;55.668;37.508;2023-05-16T04:18:01;99855.22;;;15.88;92.35
36600;BME280;35385;55.668;37.508;2023-05-16T04:19:02;99899.69;;;16.28;91.83
36600;BME280;35385;55.668;37.508;2023-05-16T04:20:03;99867.28;;;16.20;90.43
36600;BME280;35385;55.668;37.508;2023-05-16T04:21:06;99888.00;;;16.45;89.45
36600;BME280;35385;55.668;37.508;2023-05-16T04:22:06;99855.28;;;16.14;86.99
36600;BME280;35385;55.668;37.508;2023-05-16T04:23:08;99910.94;;;16.49;87.43
36600;BME280;35385;55.668;37.508;2023-05-16T04:24:11;99900.53;;;16.54;88.34
36600;BME280;35385;55.668;37.508;2023-05-16T04:25:11;99899.88;;;16.35;86.76
36600;BME280;35385;55.668;37.508;2023-05-16T04:26:13;99903.44;;;16.35;86.68
36600;BME280;35385;55.668;37.508;2023-05-16T04:27:14;99907.22;;;16.24;86.52
36600;BME280;35385;55.668;37.508;2023-05-16T04:28:14;99905.50;;;16.41;88.00
36600;BME280;35385;55.668;37.508;2023-05-16T04:29:15;99906.00;;;16.63;86.93
36600;BME280;35385;55.668;37.508;2023-05-16T04:30:16;99899.59;;;16.64;86.06
36600;BME280;35385;55.668;37.508;2023-05-16T04:31:17;99901.84;;;16.76;86.11
36600;BME280;35385;55.668;37.508;2023-05-16T04:32:18;99897.28;;;16.69;85.06
36600;BME280;35385;55.668;37.508;2023-05-16T04:33:19;99907.09;;;16.78;84.95
36600;BME280;35385;55.668;37.508;2023-05-16T04:34:19;99894.28;;;16.72;84.80
36600;BME280;35385;55.668;37.508;2023-05-16T04:35:20;99915.97;;;16.96;84.45
36600;BME280;35385;55.668;37.508;2023-05-16T04:36:21;99915.03;;;17.13;83.58
36600;BME280;35385;55.668;37.508;2023-05-16T04:37:22;99901.41;;;17.23;82.93
36600;BME280;35385;55.668;37.508;2023-05-16T04:38:23;99906.38;;;17.44;84.00
36600;BME280;35385;55.668;37.508;2023-05-16T04:39:24;99910.72;;;17.37;82.93
36600;BME280;35385;55.668;37.508;2023-05-16T04:40:24;99916.19;;;17.53;82.06
36600;BME280;35385;55.668;37.508;2023-05-16T04:41:27;99912.41;;;17.29;78.30
36600;BME280;35385;55.668;37.508;2023-05-16T04:42:27;99911.88;;;16.92;80.58
36600;BME280;35385;55.668;37.508;2023-05-16T04:43:28;99916.81;;;16.96;81.86
36600;BME280;35385;55.668;37.508;2023-05-16T04:44:29;99870.56;;;16.91;80.57
36600;BME280;35385;55.668;37.508;2023-05-16T04:45:30;99906.34;;;17.36;80.13
36600;BME280;35385;55.668;37.508;2023-05-16T04:46:30;99922.75;;;17.50;79.27
36600;BME280;35385;55.668;37.508;2023-05-16T04:47:31;99911.78;;;17.44;77.87
36600;BME280;35385;55.668;37.508;2023-05-16T04:48:34;99907.72;;;17.48;78.25
36600;BME280;35385;55.668;37.508;2023-05-16T04:49:35;99819.38;;;17.08;78.06
36600;BME280;35385;55.668;37.508;2023-05-16T04:50:36;99917.94;;;17.70;75.94
36600;BME280;35385;55.668;37.508;2023-05-16T04:51:37;99918.78;;;17.71;75.81
36600;BME280;35385;55.668;37.508;2023-05-16T04:52:37;99909.31;;;17.75;75.31
36600;BME280;35385;55.668;37.508;2023-05-16T04:53:38;99919.84;;;18.02;74.68
36600;BME280;35385;55.668;37.508;2023-05-16T04:54:38;99922.34;;;18.20;74.45
36600;BME280;35385;55.668;37.508;2023-05-16T04:55:39;99931.69;;;18.17;73.56
36600;BME280;35385;55.668;37.508;2023-05-16T04:56:40;99928.09;;;18.33;74.89
36600;BME280;35385;55.668;37.508;2023-05-16T04:57:41;99925.03;;;18.52;76.05
36600;BME280;35385;55.668;37.508;2023-05-16T04:58:41;99929.13;;;18.73;75.08
36600;BME280;35385;55.668;37.508;2023-05-16T04:59:42;99936.84;;;18.84;75.38
36600;BME280;35385;55.668;37.508;2023-05-16T05:00:43;99861.53;;;18.24;70.67
36600;BME280;35385;55.668;37.508;2023-05-16T05:01:44;99926.56;;;18.71;71.21
36600;BME280;35385;55.668;37.508;2023-05-16T05:02:44;99931.44;;;18.76;71.02
36600;BME280;35385;55.668;37.508;2023-05-16T05:03:45;99925.88;;;18.85;71.07
36600;BME280;35385;55.668;37.508;2023-05-16T05:04:45;99936.81;;;19.00;72.45
36600;BME280;35385;55.668;37.508;2023-05-16T05:05:46;99929.13;;;18.32;69.44
36600;BME280;35385;55.668;37.508;2023-05-16T05:06:48;99933.34;;;18.26;70.59
36600;BME280;35385;55.668;37.508;2023-05-16T05:07:48;99884.69;;;18.10;69.22
36600;BME280;35385;55.668;37.508;2023-05-16T05:08:49;99932.81;;;18.55;70.05
36600;BME280;35385;55.668;37.508;2023-05-16T05:09:49;99931.81;;;18.64;68.08
36600;BME280;35385;55.668;37.508;2023-05-16T05:10:51;99914.53;;;18.82;68.19
36600;BME280;35385;55.668;37.508;2023-05-16T05:11:52;99922.94;;;19.03;70.61
36600;BME280;35385;55.668;37.508;2023-05-16T05:12:53;99933.84;;;19.26;69.84
36600;BME280;35385;55.668;37.508;2023-05-16T05:13:53;99937.66;;;19.48;69.95
36600;BME280;35385;55.668;37.508;2023-05-16T05:14:54;99928.78;;;19.62;69.29
36600;BME280;35385;55.668;37.508;2023-05-16T05:15:55;99924.44;;;19.53;69.48
36600;BME280;35385;55.668;37.508;2023-05-16T05:16:55;99939.25;;;19.65;68.75
36600;BME280;35385;55.668;37.508;2023-05-16T05:17:56;99904.34;;;19.70;67.39
36600;BME280;35385;55.668;37.508;2023-05-16T05:18:56;99932.06;;;20.03;66.17
36600;BME280;35385;55.668;37.508;2023-05-16T05:19:57;99934.34;;;20.14;65.05
36600;BME280;35385;55.668;37.508;2023-05-16T05:20:58;99940.53;;;20.23;64.79
36600;BME280;35385;55.668;37.508;2023-05-16T05:21:59;99941.59;;;20.44;65.22
36600;BME280;35385;55.668;37.508;2023-05-16T05:23:00;99940.13;;;20.57;66.02
36600;BME280;35385;55.668;37.508;2023-05-16T05:24:00;99924.00;;;20.55;65.12
36600;BME280;35385;55.668;37.508;2023-05-16T05:25:01;99932.66;;;20.36;61.58
36600;BME280;35385;55.668;37.508;2023-05-16T05:26:04;99926.81;;;20.47;60.88
36600;BME280;35385;55.668;37.508;2023-05-16T05:27:05;99945.94;;;20.68;61.49
36600;BME280;35385;55.668;37.508;2023-05-16T05:28:06;99936.66;;;20.48;59.28
36600;BME280;35385;55.668;37.508;2023-05-16T05:29:06;99907.94;;;20.08;60.08
36600;BME280;35385;55.668;37.508;2023-05-16T05:30:08;99939.28;;;20.10;60.25
36600;BME280;35385;55.668;37.508;2023-05-16T05:31:08;99938.69;;;20.46;61.24
36600;BME280;35385;55.668;37.508;2023-05-16T05:32:09;99946.66;;;20.48;60.20
36600;BME280;35385;55.668;37.508;2023-05-16T05:33:10;99943.16;;;20.39;60.02
36600;BME280;35385;55.668;37.508;2023-05-16T05:34:11;99939.94;;;20.12;59.24